Otsego, Michigan
Current Conditions -  °F | °C
As of 7:53 AM on Sunday 23 Nov 2014 (Local Time) from KAZO Reporting Station
Overcast Overcast  
Wind Chill: 44°   Ceiling: 3600
Heat Index: 47°   Visibility: 9mi
Dew Point: 43°   Wind: 7mph
Humidity: 86%   Direction: 170°S
Pressure: 29.85"   Gusts: NA
Location:  42.46°N, 85.7°W
Report Text: KAZO 231253Z 17006KT 9SM OVC036 08/06 A2985 RMK AO2 RAB06E17 SLP114 P0000 T00830061
Loading
Personal Weather Stations






























Interactive Weather Map New forecast layout! Learn more

10-Day Weather Forecast

Advertisements
Track Severe Weather on mobile